sensor_id;sensor_type;location;lat;lon;timestamp;P1;durP1;ratioP1;P2;durP2;ratioP2
45049;SDS011;61798;48.048;-1.928;2022-10-17T00:02:00;19.17;;;7.80;;
45049;SDS011;61798;48.048;-1.928;2022-10-17T00:04:06;18.25;;;8.32;;
45049;SDS011;61798;48.048;-1.928;2022-10-17T00:06:13;12.38;;;7.93;;
45049;SDS011;61798;48.048;-1.928;2022-10-17T00:08:19;14.38;;;7.90;;
45049;SDS011;61798;48.048;-1.928;2022-10-17T00:10:25;11.98;;;7.38;;
45049;SDS011;61798;48.048;-1.928;2022-10-17T00:12:31;19.95;;;7.78;;
45049;SDS011;61798;48.048;-1.928;2022-10-17T00:14:38;17.48;;;8.70;;
45049;SDS011;61798;48.048;-1.928;2022-10-17T00:16:44;15.30;;;7.93;;
45049;SDS011;61798;48.048;-1.928;2022-10-17T00:18:50;16.05;;;8.10;;
45049;SDS011;61798;48.048;-1.928;2022-10-17T00:20:56;20.23;;;8.25;;
45049;SDS011;61798;48.048;-1.928;2022-10-17T00:23:02;14.20;;;7.85;;
45049;SDS011;61798;48.048;-1.928;2022-10-17T00:25:08;22.58;;;8.80;;
45049;SDS011;61798;48.048;-1.928;2022-10-17T00:27:14;17.48;;;9.27;;
45049;SDS011;61798;48.048;-1.928;2022-10-17T00:29:20;18.98;;;9.02;;
45049;SDS011;61798;48.048;-1.928;2022-10-17T00:31:26;16.67;;;9.05;;
45049;SDS011;61798;48.048;-1.928;2022-10-17T00:33:33;19.55;;;9.60;;
45049;SDS011;61798;48.048;-1.928;2022-10-17T00:35:39;28.15;;;9.15;;
45049;SDS011;61798;48.048;-1.928;2022-10-17T00:37:45;21.08;;;9.88;;
45049;SDS011;61798;48.048;-1.928;2022-10-17T00:39:52;19.48;;;8.75;;
45049;SDS011;61798;48.048;-1.928;2022-10-17T00:41:58;18.77;;;9.13;;
45049;SDS011;61798;48.048;-1.928;2022-10-17T00:46:36;17.20;;;8.45;;
45049;SDS011;61798;48.048;-1.928;2022-10-17T00:48:42;22.63;;;9.02;;
45049;SDS011;61798;48.048;-1.928;2022-10-17T00:50:48;22.27;;;9.23;;
45049;SDS011;61798;48.048;-1.928;2022-10-17T00:52:55;17.00;;;9.05;;
45049;SDS011;61798;48.048;-1.928;2022-10-17T00:55:27;15.18;;;8.93;;
45049;SDS011;61798;48.048;-1.928;2022-10-17T00:57:35;22.17;;;8.82;;
45049;SDS011;61798;48.048;-1.928;2022-10-17T00:59:41;20.83;;;8.63;;
45049;SDS011;61798;48.048;-1.928;2022-10-17T01:01:58;17.52;;;8.55;;
45049;SDS011;61798;48.048;-1.928;2022-10-17T01:04:06;16.48;;;8.55;;
45049;SDS011;61798;48.048;-1.928;2022-10-17T01:06:12;16.48;;;7.93;;
45049;SDS011;61798;48.048;-1.928;2022-10-17T01:08:18;17.10;;;8.48;;
45049;SDS011;61798;48.048;-1.928;2022-10-17T01:10:26;20.15;;;8.05;;
45049;SDS011;61798;48.048;-1.928;2022-10-17T01:12:40;16.33;;;9.05;;
45049;SDS011;61798;48.048;-1.928;2022-10-17T01:15:02;17.45;;;8.48;;
45049;SDS011;61798;48.048;-1.928;2022-10-17T01:17:22;20.25;;;8.45;;
45049;SDS011;61798;48.048;-1.928;2022-10-17T01:19:53;15.93;;;8.35;;
45049;SDS011;61798;48.048;-1.928;2022-10-17T01:22:11;16.67;;;7.97;;
45049;SDS011;61798;48.048;-1.928;2022-10-17T01:24:32;17.52;;;8.07;;
45049;SDS011;61798;48.048;-1.928;2022-10-17T01:29:41;16.85;;;7.57;;
45049;SDS011;61798;48.048;-1.928;2022-10-17T01:31:58;19.52;;;9.32;;
45049;SDS011;61798;48.048;-1.928;2022-10-17T01:38:57;17.52;;;8.98;;
45049;SDS011;61798;48.048;-1.928;2022-10-17T01:43:46;19.80;;;8.27;;
45049;SDS011;61798;48.048;-1.928;2022-10-17T01:45:58;16.63;;;8.80;;
45049;SDS011;61798;48.048;-1.928;2022-10-17T01:48:13;17.27;;;8.13;;
45049;SDS011;61798;48.048;-1.928;2022-10-17T01:50:45;17.85;;;8.68;;
45049;SDS011;61798;48.048;-1.928;2022-10-17T01:52:58;17.80;;;8.60;;
45049;SDS011;61798;48.048;-1.928;2022-10-17T01:55:11;16.00;;;7.53;;
45049;SDS011;61798;48.048;-1.928;2022-10-17T01:57:58;15.98;;;8.20;;
45049;SDS011;61798;48.048;-1.928;2022-10-17T02:00:07;17.88;;;8.45;;
45049;SDS011;61798;48.048;-1.928;2022-10-17T02:02:16;18.10;;;7.85;;
45049;SDS011;61798;48.048;-1.928;2022-10-17T02:04:24;12.73;;;7.45;;
45049;SDS011;61798;48.048;-1.928;2022-10-17T02:06:33;21.65;;;7.78;;
45049;SDS011;61798;48.048;-1.928;2022-10-17T02:08:41;15.82;;;7.25;;
45049;SDS011;61798;48.048;-1.928;2022-10-17T02:11:00;17.05;;;7.13;;
45049;SDS011;61798;48.048;-1.928;2022-10-17T02:13:14;16.02;;;7.00;;
45049;SDS011;61798;48.048;-1.928;2022-10-17T02:15:27;17.77;;;6.50;;
45049;SDS011;61798;48.048;-1.928;2022-10-17T02:17:56;15.50;;;6.43;;
45049;SDS011;61798;48.048;-1.928;2022-10-17T02:22:44;15.02;;;6.07;;
45049;SDS011;61798;48.048;-1.928;2022-10-17T02:24:59;14.38;;;6.07;;
45049;SDS011;61798;48.048;-1.928;2022-10-17T02:27:16;14.27;;;6.63;;
45049;SDS011;61798;48.048;-1.928;2022-10-17T02:30:09;17.65;;;5.53;;
45049;SDS011;61798;48.048;-1.928;2022-10-17T02:32:20;14.20;;;6.10;;
45049;SDS011;61798;48.048;-1.928;2022-10-17T02:34:41;18.70;;;6.07;;
45049;SDS011;61798;48.048;-1.928;2022-10-17T02:36:51;18.10;;;6.68;;
45049;SDS011;61798;48.048;-1.928;2022-10-17T02:39:00;15.48;;;6.10;;
45049;SDS011;61798;48.048;-1.928;2022-10-17T02:41:09;15.85;;;7.25;;
45049;SDS011;61798;48.048;-1.928;2022-10-17T02:43:19;12.10;;;6.07;;
45049;SDS011;61798;48.048;-1.928;2022-10-17T02:45:28;24.10;;;7.20;;
45049;SDS011;61798;48.048;-1.928;2022-10-17T02:47:43;16.48;;;6.00;;
45049;SDS011;61798;48.048;-1.928;2022-10-17T02:50:10;17.58;;;5.95;;
45049;SDS011;61798;48.048;-1.928;2022-10-17T02:52:17;17.38;;;6.78;;
45049;SDS011;61798;48.048;-1.928;2022-10-17T02:54:46;15.55;;;6.07;;
45049;SDS011;61798;48.048;-1.928;2022-10-17T02:57:17;9.98;;;5.40;;
45049;SDS011;61798;48.048;-1.928;2022-10-17T02:59:31;13.98;;;6.45;;
45049;SDS011;61798;48.048;-1.928;2022-10-17T03:01:39;13.93;;;6.45;;
45049;SDS011;61798;48.048;-1.928;2022-10-17T03:03:46;20.63;;;6.47;;
45049;SDS011;61798;48.048;-1.928;2022-10-17T03:05:52;16.00;;;6.53;;
45049;SDS011;61798;48.048;-1.928;2022-10-17T03:07:58;15.23;;;6.07;;
45049;SDS011;61798;48.048;-1.928;2022-10-17T03:10:04;15.48;;;6.40;;
45049;SDS011;61798;48.048;-1.928;2022-10-17T03:12:11;15.50;;;6.60;;
45049;SDS011;61798;48.048;-1.928;2022-10-17T03:14:16;16.63;;;6.43;;
45049;SDS011;61798;48.048;-1.928;2022-10-17T03:16:22;14.98;;;6.40;;
45049;SDS011;61798;48.048;-1.928;2022-10-17T03:18:28;16.98;;;6.63;;
45049;SDS011;61798;48.048;-1.928;2022-10-17T03:20:34;18.45;;;6.57;;
45049;SDS011;61798;48.048;-1.928;2022-10-17T03:22:41;14.93;;;7.55;;
45049;SDS011;61798;48.048;-1.928;2022-10-17T03:24:46;15.25;;;6.45;;
45049;SDS011;61798;48.048;-1.928;2022-10-17T03:26:52;16.27;;;6.70;;
45049;SDS011;61798;48.048;-1.928;2022-10-17T03:28:58;16.48;;;6.78;;
45049;SDS011;61798;48.048;-1.928;2022-10-17T03:31:08;15.23;;;6.50;;
45049;SDS011;61798;48.048;-1.928;2022-10-17T03:33:15;16.02;;;5.65;;
45049;SDS011;61798;48.048;-1.928;2022-10-17T03:35:21;16.52;;;5.50;;
45049;SDS011;61798;48.048;-1.928;2022-10-17T03:37:27;15.60;;;5.88;;
45049;SDS011;61798;48.048;-1.928;2022-10-17T03:39:33;13.50;;;5.28;;
45049;SDS011;61798;48.048;-1.928;2022-10-17T03:41:39;12.95;;;5.07;;
45049;SDS011;61798;48.048;-1.928;2022-10-17T03:43:45;15.50;;;4.95;;
45049;SDS011;61798;48.048;-1.928;2022-10-17T03:45:50;17.30;;;4.47;;
45049;SDS011;61798;48.048;-1.928;2022-10-17T03:47:59;11.90;;;4.47;;
45049;SDS011;61798;48.048;-1.928;2022-10-17T03:50:05;12.02;;;4.00;;
45049;SDS011;61798;48.048;-1.928;2022-10-17T03:52:12;9.52;;;4.28;;
45049;SDS011;61798;48.048;-1.928;2022-10-17T03:54:18;7.35;;;3.45;;
45049;SDS011;61798;48.048;-1.928;2022-10-17T03:56:24;12.93;;;4.25;;
45049;SDS011;61798;48.048;-1.928;2022-10-17T03:58:30;14.20;;;4.20;;
45049;SDS011;61798;48.048;-1.928;2022-10-17T04:00:36;13.32;;;4.28;;
45049;SDS011;61798;48.048;-1.928;2022-10-17T04:02:42;13.30;;;4.05;;
45049;SDS011;61798;48.048;-1.928;2022-10-17T04:04:49;11.20;;;4.97;;
45049;SDS011;61798;48.048;-1.928;2022-10-17T04:06:55;14.23;;;4.50;;
45049;SDS011;61798;48.048;-1.928;2022-10-17T04:09:01;11.52;;;4.35;;
45049;SDS011;61798;48.048;-1.928;2022-10-17T04:11:09;12.95;;;4.72;;
45049;SDS011;61798;48.048;-1.928;2022-10-17T04:13:19;16.17;;;5.00;;
45049;SDS011;61798;48.048;-1.928;2022-10-17T04:15:25;13.43;;;4.63;;
45049;SDS011;61798;48.048;-1.928;2022-10-17T04:17:31;9.70;;;4.10;;
45049;SDS011;61798;48.048;-1.928;2022-10-17T04:19:37;11.98;;;4.38;;
45049;SDS011;61798;48.048;-1.928;2022-10-17T04:21:43;10.85;;;3.97;;
45049;SDS011;61798;48.048;-1.928;2022-10-17T04:23:54;9.93;;;3.95;;
45049;SDS011;61798;48.048;-1.928;2022-10-17T04:26:01;10.82;;;3.95;;
45049;SDS011;61798;48.048;-1.928;2022-10-17T04:28:08;13.90;;;4.18;;
45049;SDS011;61798;48.048;-1.928;2022-10-17T04:30:14;12.15;;;3.70;;
45049;SDS011;61798;48.048;-1.928;2022-10-17T04:32:21;12.77;;;3.97;;
45049;SDS011;61798;48.048;-1.928;2022-10-17T04:34:27;9.00;;;4.18;;
45049;SDS011;61798;48.048;-1.928;2022-10-17T04:36:32;11.82;;;4.28;;
45049;SDS011;61798;48.048;-1.928;2022-10-17T04:38:38;8.90;;;3.80;;
45049;SDS011;61798;48.048;-1.928;2022-10-17T04:40:45;11.60;;;3.60;;
45049;SDS011;61798;48.048;-1.928;2022-10-17T04:42:50;9.80;;;3.70;;
45049;SDS011;61798;48.048;-1.928;2022-10-17T04:44:57;13.70;;;4.57;;
45049;SDS011;61798;48.048;-1.928;2022-10-17T04:47:03;10.65;;;3.58;;
45049;SDS011;61798;48.048;-1.928;2022-10-17T04:49:09;13.60;;;4.22;;
45049;SDS011;61798;48.048;-1.928;2022-10-17T04:51:16;13.40;;;4.28;;
45049;SDS011;61798;48.048;-1.928;2022-10-17T04:53:23;11.70;;;4.03;;
45049;SDS011;61798;48.048;-1.928;2022-10-17T04:55:30;11.68;;;3.92;;
45049;SDS011;61798;48.048;-1.928;2022-10-17T04:57:36;11.90;;;4.50;;
45049;SDS011;61798;48.048;-1.928;2022-10-17T04:59:42;13.73;;;4.70;;
45049;SDS011;61798;48.048;-1.928;2022-10-17T05:01:48;12.48;;;4.00;;
45049;SDS011;61798;48.048;-1.928;2022-10-17T05:03:54;9.23;;;3.60;;
45049;SDS011;61798;48.048;-1.928;2022-10-17T05:06:04;10.73;;;3.50;;
45049;SDS011;61798;48.048;-1.928;2022-10-17T05:08:11;12.10;;;3.55;;
45049;SDS011;61798;48.048;-1.928;2022-10-17T05:10:17;12.45;;;3.80;;
45049;SDS011;61798;48.048;-1.928;2022-10-17T05:12:24;14.75;;;3.45;;
45049;SDS011;61798;48.048;-1.928;2022-10-17T05:14:30;10.70;;;3.60;;
45049;SDS011;61798;48.048;-1.928;2022-10-17T05:16:37;10.65;;;3.20;;
45049;SDS011;61798;48.048;-1.928;2022-10-17T05:18:43;10.48;;;3.30;;
45049;SDS011;61798;48.048;-1.928;2022-10-17T05:20:49;7.90;;;2.95;;
45049;SDS011;61798;48.048;-1.928;2022-10-17T05:22:57;8.30;;;3.08;;
45049;SDS011;61798;48.048;-1.928;2022-10-17T05:25:04;6.60;;;3.17;;
45049;SDS011;61798;48.048;-1.928;2022-10-17T05:27:10;12.30;;;2.95;;
45049;SDS011;61798;48.048;-1.928;2022-10-17T05:29:16;9.15;;;2.83;;
45049;SDS011;61798;48.048;-1.928;2022-10-17T05:31:22;8.07;;;2.53;;
45049;SDS011;61798;48.048;-1.928;2022-10-17T05:33:28;8.82;;;2.70;;
45049;SDS011;61798;48.048;-1.928;2022-10-17T05:35:34;7.10;;;2.60;;
45049;SDS011;61798;48.048;-1.928;2022-10-17T05:37:40;9.30;;;2.38;;
45049;SDS011;61798;48.048;-1.928;2022-10-17T05:39:46;7.28;;;2.47;;
45049;SDS011;61798;48.048;-1.928;2022-10-17T05:41:52;9.35;;;2.22;;
45049;SDS011;61798;48.048;-1.928;2022-10-17T05:43:59;6.53;;;2.35;;
45049;SDS011;61798;48.048;-1.928;2022-10-17T05:46:05;10.32;;;2.60;;
45049;SDS011;61798;48.048;-1.928;2022-10-17T05:48:12;6.18;;;1.65;;
45049;SDS011;61798;48.048;-1.928;2022-10-17T05:50:19;7.60;;;2.17;;
45049;SDS011;61798;48.048;-1.928;2022-10-17T05:52:27;12.00;;;2.17;;
45049;SDS011;61798;48.048;-1.928;2022-10-17T05:54:34;10.90;;;2.30;;
45049;SDS011;61798;48.048;-1.928;2022-10-17T05:56:40;9.70;;;2.00;;
45049;SDS011;61798;48.048;-1.928;2022-10-17T05:58:47;12.77;;;1.70;;
45049;SDS011;61798;48.048;-1.928;2022-10-17T06:01:04;7.35;;;1.83;;
45049;SDS011;61798;48.048;-1.928;2022-10-17T06:03:12;9.57;;;1.90;;
45049;SDS011;61798;48.048;-1.928;2022-10-17T06:05:20;5.78;;;1.55;;
45049;SDS011;61798;48.048;-1.928;2022-10-17T06:07:28;4.90;;;1.70;;
45049;SDS011;61798;48.048;-1.928;2022-10-17T06:09:35;7.25;;;1.35;;
45049;SDS011;61798;48.048;-1.928;2022-10-17T06:11:42;7.47;;;1.67;;
45049;SDS011;61798;48.048;-1.928;2022-10-17T06:13:49;5.32;;;1.42;;
45049;SDS011;61798;48.048;-1.928;2022-10-17T06:15:57;6.20;;;1.45;;
45049;SDS011;61798;48.048;-1.928;2022-10-17T06:18:04;9.15;;;1.40;;
45049;SDS011;61798;48.048;-1.928;2022-10-17T06:20:11;6.18;;;1.60;;
45049;SDS011;61798;48.048;-1.928;2022-10-17T06:22:18;5.82;;;1.40;;
45049;SDS011;61798;48.048;-1.928;2022-10-17T06:24:25;5.97;;;1.50;;
45049;SDS011;61798;48.048;-1.928;2022-10-17T06:26:32;5.93;;;1.50;;
45049;SDS011;61798;48.048;-1.928;2022-10-17T06:28:40;5.18;;;1.45;;
45049;SDS011;61798;48.048;-1.928;2022-10-17T06:30:47;8.30;;;1.52;;
45049;SDS011;61798;48.048;-1.928;2022-10-17T06:32:53;8.65;;;1.45;;
45049;SDS011;61798;48.048;-1.928;2022-10-17T06:34:59;5.03;;;1.38;;
45049;SDS011;61798;48.048;-1.928;2022-10-17T06:37:05;4.03;;;1.30;;
45049;SDS011;61798;48.048;-1.928;2022-10-17T06:39:11;5.47;;;1.65;;
45049;SDS011;61798;48.048;-1.928;2022-10-17T06:41:17;5.50;;;1.40;;
45049;SDS011;61798;48.048;-1.928;2022-10-17T06:43:26;4.38;;;1.27;;
45049;SDS011;61798;48.048;-1.928;2022-10-17T06:45:32;5.55;;;1.52;;
45049;SDS011;61798;48.048;-1.928;2022-10-17T06:47:38;7.93;;;1.73;;
45049;SDS011;61798;48.048;-1.928;2022-10-17T06:49:44;10.68;;;2.05;;
45049;SDS011;61798;48.048;-1.928;2022-10-17T06:51:50;10.13;;;1.75;;
45049;SDS011;61798;48.048;-1.928;2022-10-17T06:53:56;8.98;;;1.90;;
45049;SDS011;61798;48.048;-1.928;2022-10-17T06:56:03;9.32;;;1.25;;
45049;SDS011;61798;48.048;-1.928;2022-10-17T06:58:11;6.13;;;2.20;;
45049;SDS011;61798;48.048;-1.928;2022-10-17T07:00:17;7.40;;;1.98;;
45049;SDS011;61798;48.048;-1.928;2022-10-17T07:02:23;9.20;;;2.15;;
45049;SDS011;61798;48.048;-1.928;2022-10-17T07:04:29;8.88;;;1.58;;
45049;SDS011;61798;48.048;-1.928;2022-10-17T07:06:35;8.05;;;1.50;;
45049;SDS011;61798;48.048;-1.928;2022-10-17T07:08:42;7.82;;;1.23;;
45049;SDS011;61798;48.048;-1.928;2022-10-17T07:10:49;6.57;;;1.63;;
45049;SDS011;61798;48.048;-1.928;2022-10-17T07:12:55;7.50;;;1.55;;
45049;SDS011;61798;48.048;-1.928;2022-10-17T07:15:03;13.18;;;1.75;;
45049;SDS011;61798;48.048;-1.928;2022-10-17T07:17:09;7.80;;;1.35;;
45049;SDS011;61798;48.048;-1.928;2022-10-17T07:19:17;9.10;;;1.42;;
45049;SDS011;61798;48.048;-1.928;2022-10-17T07:21:23;11.57;;;2.15;;
45049;SDS011;61798;48.048;-1.928;2022-10-17T07:23:29;6.63;;;1.60;;
45049;SDS011;61798;48.048;-1.928;2022-10-17T07:25:35;8.38;;;1.88;;
45049;SDS011;61798;48.048;-1.928;2022-10-17T07:27:41;7.55;;;1.58;;
45049;SDS011;61798;48.048;-1.928;2022-10-17T07:29:47;11.73;;;2.40;;
45049;SDS011;61798;48.048;-1.928;2022-10-17T07:31:53;7.32;;;1.67;;
45049;SDS011;61798;48.048;-1.928;2022-10-17T07:33:59;6.47;;;1.42;;
45049;SDS011;61798;48.048;-1.928;2022-10-17T07:36:05;6.05;;;1.50;;
45049;SDS011;61798;48.048;-1.928;2022-10-17T07:38:11;9.00;;;1.70;;
45049;SDS011;61798;48.048;-1.928;2022-10-17T07:40:17;4.13;;;1.80;;
45049;SDS011;61798;48.048;-1.928;2022-10-17T07:42:23;11.02;;;1.52;;
45049;SDS011;61798;48.048;-1.928;2022-10-17T07:44:29;11.55;;;1.95;;
45049;SDS011;61798;48.048;-1.928;2022-10-17T07:46:35;6.20;;;1.40;;
45049;SDS011;61798;48.048;-1.928;2022-10-17T07:48:41;10.27;;;1.63;;
45049;SDS011;61798;48.048;-1.928;2022-10-17T07:50:47;6.43;;;1.65;;
45049;SDS011;61798;48.048;-1.928;2022-10-17T07:52:54;7.50;;;1.58;;
45049;SDS011;61798;48.048;-1.928;2022-10-17T07:55:00;7.68;;;2.13;;
45049;SDS011;61798;48.048;-1.928;2022-10-17T07:57:06;7.65;;;2.10;;
45049;SDS011;61798;48.048;-1.928;2022-10-17T07:59:12;6.68;;;2.40;;
45049;SDS011;61798;48.048;-1.928;2022-10-17T08:01:18;8.65;;;1.95;;
45049;SDS011;61798;48.048;-1.928;2022-10-17T08:03:24;5.75;;;2.10;;
45049;SDS011;61798;48.048;-1.928;2022-10-17T08:05:30;8.30;;;2.45;;
45049;SDS011;61798;48.048;-1.928;2022-10-17T08:07:36;6.70;;;2.60;;
45049;SDS011;61798;48.048;-1.928;2022-10-17T08:09:43;12.23;;;2.72;;
45049;SDS011;61798;48.048;-1.928;2022-10-17T08:11:49;11.20;;;2.95;;
45049;SDS011;61798;48.048;-1.928;2022-10-17T08:13:55;10.23;;;2.90;;
45049;SDS011;61798;48.048;-1.928;2022-10-17T08:16:01;6.32;;;2.42;;
45049;SDS011;61798;48.048;-1.928;2022-10-17T08:18:09;9.20;;;2.92;;
45049;SDS011;61798;48.048;-1.928;2022-10-17T08:20:15;8.63;;;2.13;;
45049;SDS011;61798;48.048;-1.928;2022-10-17T08:22:21;7.72;;;2.03;;
45049;SDS011;61798;48.048;-1.928;2022-10-17T08:24:27;8.90;;;2.28;;
45049;SDS011;61798;48.048;-1.928;2022-10-17T08:26:33;9.93;;;2.80;;
45049;SDS011;61798;48.048;-1.928;2022-10-17T08:28:39;9.65;;;2.13;;
45049;SDS011;61798;48.048;-1.928;2022-10-17T08:30:45;11.63;;;2.22;;
45049;SDS011;61798;48.048;-1.928;2022-10-17T08:32:50;10.68;;;2.42;;
45049;SDS011;61798;48.048;-1.928;2022-10-17T08:34:56;4.78;;;1.30;;
45049;SDS011;61798;48.048;-1.928;2022-10-17T08:37:02;8.55;;;1.90;;
45049;SDS011;61798;48.048;-1.928;2022-10-17T08:39:08;8.32;;;1.63;;
45049;SDS011;61798;48.048;-1.928;2022-10-17T08:46:09;7.90;;;1.52;;
45049;SDS011;61798;48.048;-1.928;2022-10-17T08:48:17;6.88;;;2.20;;
45049;SDS011;61798;48.048;-1.928;2022-10-17T08:50:30;7.15;;;2.15;;
45049;SDS011;61798;48.048;-1.928;2022-10-17T08:55:32;12.90;;;2.70;;
45049;SDS011;61798;48.048;-1.928;2022-10-17T08:57:42;10.45;;;2.45;;
45049;SDS011;61798;48.048;-1.928;2022-10-17T08:59:49;16.70;;;3.45;;
45049;SDS011;61798;48.048;-1.928;2022-10-17T09:06:25;11.13;;;2.20;;
45049;SDS011;61798;48.048;-1.928;2022-10-17T09:08:51;9.88;;;2.13;;
45049;SDS011;61798;48.048;-1.928;2022-10-17T09:14:07;7.67;;;1.47;;
45049;SDS011;61798;48.048;-1.928;2022-10-17T09:18:46;10.52;;;2.13;;
45049;SDS011;61798;48.048;-1.928;2022-10-17T09:21:11;9.43;;;1.90;;
45049;SDS011;61798;48.048;-1.928;2022-10-17T09:23:29;13.55;;;3.15;;
45049;SDS011;61798;48.048;-1.928;2022-10-17T09:25:49;9.38;;;3.78;;
45049;SDS011;61798;48.048;-1.928;2022-10-17T09:28:05;11.25;;;5.10;;
45049;SDS011;61798;48.048;-1.928;2022-10-17T09:30:35;15.77;;;6.43;;
45049;SDS011;61798;48.048;-1.928;2022-10-17T09:32:47;11.73;;;5.28;;
45049;SDS011;61798;48.048;-1.928;2022-10-17T09:34:58;10.98;;;4.95;;
45049;SDS011;61798;48.048;-1.928;2022-10-17T09:37:04;13.85;;;4.38;;
45049;SDS011;61798;48.048;-1.928;2022-10-17T09:39:18;10.70;;;4.10;;
45049;SDS011;61798;48.048;-1.928;2022-10-17T09:43:45;12.32;;;4.15;;
45049;SDS011;61798;48.048;-1.928;2022-10-17T09:46:04;13.43;;;3.85;;
45049;SDS011;61798;48.048;-1.928;2022-10-17T09:50:32;8.63;;;3.58;;
45049;SDS011;61798;48.048;-1.928;2022-10-17T09:52:39;7.47;;;2.83;;
45049;SDS011;61798;48.048;-1.928;2022-10-17T09:54:55;11.15;;;3.50;;
45049;SDS011;61798;48.048;-1.928;2022-10-17T09:57:06;11.93;;;2.80;;
45049;SDS011;61798;48.048;-1.928;2022-10-17T09:59:14;10.40;;;3.25;;
45049;SDS011;61798;48.048;-1.928;2022-10-17T10:01:35;8.82;;;3.30;;
45049;SDS011;61798;48.048;-1.928;2022-10-17T10:03:41;9.48;;;2.35;;
45049;SDS011;61798;48.048;-1.928;2022-10-17T10:08:18;10.30;;;2.92;;
45049;SDS011;61798;48.048;-1.928;2022-10-17T10:10:25;13.10;;;3.33;;
45049;SDS011;61798;48.048;-1.928;2022-10-17T10:12:34;13.55;;;3.67;;
45049;SDS011;61798;48.048;-1.928;2022-10-17T10:14:42;11.35;;;3.53;;
45049;SDS011;61798;48.048;-1.928;2022-10-17T10:16:48;12.15;;;3.00;;
45049;SDS011;61798;48.048;-1.928;2022-10-17T10:18:58;11.10;;;2.15;;
45049;SDS011;61798;48.048;-1.928;2022-10-17T10:23:15;8.73;;;3.08;;
45049;SDS011;61798;48.048;-1.928;2022-10-17T10:25:22;11.07;;;2.33;;
45049;SDS011;61798;48.048;-1.928;2022-10-17T10:27:28;8.57;;;2.75;;
45049;SDS011;61798;48.048;-1.928;2022-10-17T10:29:52;13.10;;;5.38;;
45049;SDS011;61798;48.048;-1.928;2022-10-17T10:32:21;17.65;;;5.70;;
45049;SDS011;61798;48.048;-1.928;2022-10-17T10:34:27;16.92;;;5.88;;
45049;SDS011;61798;48.048;-1.928;2022-10-17T10:36:42;17.67;;;5.28;;
45049;SDS011;61798;48.048;-1.928;2022-10-17T10:39:14;16.55;;;6.05;;
45049;SDS011;61798;48.048;-1.928;2022-10-17T10:41:46;10.68;;;5.05;;
45049;SDS011;61798;48.048;-1.928;2022-10-17T10:43:53;14.57;;;5.82;;
45049;SDS011;61798;48.048;-1.928;2022-10-17T10:46:01;15.50;;;5.75;;
45049;SDS011;61798;48.048;-1.928;2022-10-17T10:52:55;13.05;;;5.88;;
45049;SDS011;61798;48.048;-1.928;2022-10-17T11:00:42;11.05;;;2.97;;
45049;SDS011;61798;48.048;-1.928;2022-10-17T11:05:17;10.38;;;2.70;;
45049;SDS011;61798;48.048;-1.928;2022-10-17T11:07:32;5.28;;;2.17;;
45049;SDS011;61798;48.048;-1.928;2022-10-17T11:09:45;10.05;;;2.50;;
45049;SDS011;61798;48.048;-1.928;2022-10-17T11:12:20;10.13;;;2.30;;
45049;SDS011;61798;48.048;-1.928;2022-10-17T11:14:32;5.20;;;1.63;;
45049;SDS011;61798;48.048;-1.928;2022-10-17T11:17:04;8.57;;;1.80;;
45049;SDS011;61798;48.048;-1.928;2022-10-17T11:23:47;7.15;;;1.20;;
45049;SDS011;61798;48.048;-1.928;2022-10-17T11:25:58;7.15;;;1.33;;
45049;SDS011;61798;48.048;-1.928;2022-10-17T11:28:11;9.07;;;1.23;;
45049;SDS011;61798;48.048;-1.928;2022-10-17T11:30:20;6.07;;;1.35;;
45049;SDS011;61798;48.048;-1.928;2022-10-17T11:37:30;7.43;;;1.65;;
45049;SDS011;61798;48.048;-1.928;2022-10-17T11:39:59;5.50;;;1.25;;
45049;SDS011;61798;48.048;-1.928;2022-10-17T11:42:15;6.35;;;1.48;;
45049;SDS011;61798;48.048;-1.928;2022-10-17T11:44:34;7.50;;;2.03;;
45049;SDS011;61798;48.048;-1.928;2022-10-17T11:46:41;5.30;;;1.25;;
45049;SDS011;61798;48.048;-1.928;2022-10-17T11:49:01;7.65;;;1.85;;
45049;SDS011;61798;48.048;-1.928;2022-10-17T11:51:12;6.15;;;0.82;;
45049;SDS011;61798;48.048;-1.928;2022-10-17T11:53:21;5.30;;;1.23;;
45049;SDS011;61798;48.048;-1.928;2022-10-17T11:55:29;7.22;;;1.85;;
45049;SDS011;61798;48.048;-1.928;2022-10-17T12:02:30;4.28;;;1.00;;
45049;SDS011;61798;48.048;-1.928;2022-10-17T12:04:55;5.40;;;1.08;;
45049;SDS011;61798;48.048;-1.928;2022-10-17T12:07:23;8.32;;;1.20;;
45049;SDS011;61798;48.048;-1.928;2022-10-17T12:09:53;7.20;;;1.63;;
45049;SDS011;61798;48.048;-1.928;2022-10-17T12:12:00;10.10;;;1.40;;
45049;SDS011;61798;48.048;-1.928;2022-10-17T12:16:41;6.57;;;1.27;;
45049;SDS011;61798;48.048;-1.928;2022-10-17T12:18:51;11.30;;;1.88;;
45049;SDS011;61798;48.048;-1.928;2022-10-17T12:21:17;8.70;;;2.22;;
45049;SDS011;61798;48.048;-1.928;2022-10-17T12:23:26;4.20;;;1.20;;
45049;SDS011;61798;48.048;-1.928;2022-10-17T12:25:35;7.18;;;1.65;;
45049;SDS011;61798;48.048;-1.928;2022-10-17T12:28:01;6.80;;;1.60;;
45049;SDS011;61798;48.048;-1.928;2022-10-17T12:30:18;5.53;;;1.17;;
45049;SDS011;61798;48.048;-1.928;2022-10-17T12:32:30;7.05;;;1.45;;
45049;SDS011;61798;48.048;-1.928;2022-10-17T12:34:36;6.30;;;1.52;;
45049;SDS011;61798;48.048;-1.928;2022-10-17T12:36:43;6.15;;;1.50;;
45049;SDS011;61798;48.048;-1.928;2022-10-17T12:41:08;8.95;;;1.42;;
45049;SDS011;61798;48.048;-1.928;2022-10-17T12:47:52;8.07;;;1.17;;
45049;SDS011;61798;48.048;-1.928;2022-10-17T12:49:58;5.97;;;1.02;;
45049;SDS011;61798;48.048;-1.928;2022-10-17T12:52:13;7.43;;;1.83;;
45049;SDS011;61798;48.048;-1.928;2022-10-17T12:54:20;5.90;;;1.35;;
45049;SDS011;61798;48.048;-1.928;2022-10-17T12:56:30;4.55;;;1.23;;
45049;SDS011;61798;48.048;-1.928;2022-10-17T12:58:43;8.32;;;1.50;;
45049;SDS011;61798;48.048;-1.928;2022-10-17T13:00:52;7.13;;;1.55;;
45049;SDS011;61798;48.048;-1.928;2022-10-17T13:05:26;5.10;;;1.50;;
45049;SDS011;61798;48.048;-1.928;2022-10-17T13:07:36;3.22;;;1.13;;
45049;SDS011;61798;48.048;-1.928;2022-10-17T13:09:47;5.07;;;1.38;;
45049;SDS011;61798;48.048;-1.928;2022-10-17T13:11:55;3.63;;;1.30;;
45049;SDS011;61798;48.048;-1.928;2022-10-17T13:14:08;2.85;;;1.10;;
45049;SDS011;61798;48.048;-1.928;2022-10-17T13:16:34;6.47;;;1.13;;
45049;SDS011;61798;48.048;-1.928;2022-10-17T13:18:42;7.05;;;1.27;;
45049;SDS011;61798;48.048;-1.928;2022-10-17T13:23:30;4.05;;;1.65;;
45049;SDS011;61798;48.048;-1.928;2022-10-17T13:25:36;10.25;;;1.30;;
45049;SDS011;61798;48.048;-1.928;2022-10-17T13:27:42;6.82;;;1.55;;
45049;SDS011;61798;48.048;-1.928;2022-10-17T13:29:49;6.88;;;1.70;;
45049;SDS011;61798;48.048;-1.928;2022-10-17T13:31:56;4.25;;;1.30;;
45049;SDS011;61798;48.048;-1.928;2022-10-17T13:34:14;2.63;;;1.10;;
45049;SDS011;61798;48.048;-1.928;2022-10-17T13:36:25;5.40;;;1.77;;
45049;SDS011;61798;48.048;-1.928;2022-10-17T13:38:33;7.82;;;1.30;;
45049;SDS011;61798;48.048;-1.928;2022-10-17T13:40:41;5.57;;;1.33;;
45049;SDS011;61798;48.048;-1.928;2022-10-17T13:42:48;6.20;;;1.40;;
45049;SDS011;61798;48.048;-1.928;2022-10-17T13:44:56;7.07;;;1.17;;
45049;SDS011;61798;48.048;-1.928;2022-10-17T13:47:03;5.97;;;1.20;;
45049;SDS011;61798;48.048;-1.928;2022-10-17T13:49:31;5.65;;;1.65;;
45049;SDS011;61798;48.048;-1.928;2022-10-17T13:51:45;3.00;;;1.17;;
45049;SDS011;61798;48.048;-1.928;2022-10-17T13:53:54;5.80;;;1.50;;
45049;SDS011;61798;48.048;-1.928;2022-10-17T13:56:01;11.82;;;1.60;;
45049;SDS011;61798;48.048;-1.928;2022-10-17T13:58:13;4.53;;;1.15;;
45049;SDS011;61798;48.048;-1.928;2022-10-17T14:00:20;6.15;;;1.30;;
45049;SDS011;61798;48.048;-1.928;2022-10-17T14:02:28;4.68;;;1.48;;
45049;SDS011;61798;48.048;-1.928;2022-10-17T14:04:35;6.30;;;1.75;;
45049;SDS011;61798;48.048;-1.928;2022-10-17T14:06:42;9.55;;;1.52;;
45049;SDS011;61798;48.048;-1.928;2022-10-17T14:10:58;5.80;;;1.33;;
45049;SDS011;61798;48.048;-1.928;2022-10-17T14:13:05;5.45;;;1.40;;